Time;durP1;ratioP1;P1;durP2;ratioP2;P2;SDS_P1;SDS_P2;PMS_P1;PMS_P2;Temp;Humidity;BMP_temperature;BMP_pressure;BME280_temperature;BME280_humidity;BME280_pressure;Samples;Min_cycle;Max_cycle;Signal;HPM_P1;HPM_P2
2024/04/07 00:06:15;;;;;;;;;;;18.90;55.70;;;;;;20920214;28;20277;-63
2024/04/07 00:16:17;;;;;;;;;;;18.90;56.10;;;;;;20918543;28;20015;-62
2024/04/07 00:26:18;;;;;;;;;;;18.80;56.50;;;;;;20916751;28;19913;-62
2024/04/07 00:36:19;;;;;;;;;;;18.70;57.00;;;;;;20916113;28;19975;-63
2024/04/07 00:46:20;;;;;;;;;;;18.60;57.90;;;;;;20915336;28;19921;-62
2024/04/07 00:56:22;;;;;;;;;;;18.50;58.60;;;;;;20915151;28;20286;-62
2024/04/07 01:06:24;;;;;;;;;;;18.40;59.60;;;;;;20913738;28;19909;-62
2024/04/07 01:16:26;;;;;;;;;;;18.30;60.10;;;;;;20914478;28;19920;-62
2024/04/07 01:26:28;;;;;;;;;;;18.20;60.60;;;;;;20912453;28;19917;-62
2024/04/07 01:36:30;;;;;;;;;;;18.10;61.10;;;;;;20913512;28;19939;-63
2024/04/07 01:46:33;;;;;;;;;;;18.10;61.30;;;;;;20911314;28;20054;-62
2024/04/07 01:56:34;;;;;;;;;;;18.10;61.40;;;;;;20912496;28;20396;-62
2024/04/07 02:06:35;;;;;;;;;;;18.10;61.70;;;;;;20912901;28;20324;-62
2024/04/07 02:16:36;;;;;;;;;;;18.00;62.00;;;;;;20927119;28;19952;-62
2024/04/07 02:26:38;;;;;;;;;;;17.80;62.50;;;;;;20927529;28;19996;-62
2024/04/07 02:36:39;;;;;;;;;;;17.70;63.60;;;;;;20926566;28;19917;-61
2024/04/07 02:56:59;;;;;;;;;;;17.20;65.30;;;;;;20923760;28;19946;-63
2024/04/07 03:07:03;;;;;;;;;;;17.00;65.80;;;;;;20924251;28;20464;-62
2024/04/07 03:17:04;;;;;;;;;;;16.80;65.90;;;;;;20923033;28;19920;-62
2024/04/07 03:27:06;;;;;;;;;;;16.90;65.90;;;;;;20922631;28;20374;-62
2024/04/07 03:37:07;;;;;;;;;;;16.70;66.20;;;;;;20920668;28;19917;-62
2024/04/07 03:47:09;;;;;;;;;;;16.70;66.20;;;;;;20912107;28;19924;-61
2024/04/07 03:57:11;;;;;;;;;;;16.70;66.10;;;;;;20919373;28;19939;-62
2024/04/07 04:07:12;;;;;;;;;;;16.70;66.20;;;;;;20919786;28;20385;-62
2024/04/07 04:17:13;;;;;;;;;;;16.60;66.60;;;;;;20917848;28;19968;-62
2024/04/07 04:27:15;;;;;;;;;;;16.60;66.90;;;;;;20918172;28;20396;-62
2024/04/07 04:37:17;;;;;;;;;;;16.50;67.10;;;;;;20916725;28;19917;-62
2024/04/07 04:47:18;;;;;;;;;;;16.60;66.90;;;;;;20915836;28;20027;-62
2024/04/07 04:57:19;;;;;;;;;;;16.60;66.90;;;;;;20915423;28;19921;-62
2024/04/07 05:07:20;;;;;;;;;;;16.70;66.40;;;;;;20913648;28;19909;-63
2024/04/07 05:17:23;;;;;;;;;;;16.80;65.20;;;;;;20912986;28;19921;-62
2024/04/07 05:27:24;;;;;;;;;;;16.80;64.70;;;;;;20912476;28;20054;-62
2024/04/07 05:37:26;;;;;;;;;;;16.90;64.20;;;;;;20913143;28;19917;-62
2024/04/07 05:47:27;;;;;;;;;;;16.90;64.10;;;;;;20911698;28;20366;-62
2024/04/07 05:57:27;;;;;;;;;;;16.90;64.20;;;;;;20913071;28;19932;-62
2024/04/07 06:07:29;;;;;;;;;;;16.90;64.40;;;;;;20911374;28;19913;-62
2024/04/07 06:17:30;;;;;;;;;;;16.80;65.30;;;;;;20910036;28;19920;-62
2024/04/07 06:27:31;;;;;;;;;;;16.80;65.60;;;;;;20910850;28;19941;-63
2024/04/07 06:37:32;;;;;;;;;;;16.80;66.10;;;;;;20910583;28;19917;-63
2024/04/07 06:47:33;;;;;;;;;;;16.80;66.20;;;;;;20910345;28;20007;-63
2024/04/07 06:57:34;;;;;;;;;;;16.70;66.30;;;;;;20917098;28;19921;-63
2024/04/07 07:07:36;;;;;;;;;;;16.80;65.50;;;;;;20923717;28;19940;-63
2024/04/07 07:17:38;;;;;;;;;;;16.80;65.20;;;;;;20923791;28;20238;-62
2024/04/07 07:27:39;;;;;;;;;;;16.70;65.10;;;;;;20924149;28;19943;-64
2024/04/07 07:37:40;;;;;;;;;;;16.80;65.20;;;;;;20920925;28;19916;-63
2024/04/07 07:47:41;;;;;;;;;;;16.90;65.20;;;;;;20920308;28;19927;-62
2024/04/07 07:57:44;;;;;;;;;;;17.00;65.20;;;;;;20919923;28;20308;-62
2024/04/07 08:07:45;;;;;;;;;;;17.20;64.60;;;;;;20918048;28;19919;-63
2024/04/07 08:17:47;;;;;;;;;;;17.50;63.60;;;;;;20917854;28;19940;-62
2024/04/07 08:27:48;;;;;;;;;;;17.80;62.70;;;;;;20918684;28;20270;-62
2024/04/07 08:37:49;;;;;;;;;;;18.20;60.80;;;;;;20917558;28;20358;-63
2024/04/07 08:47:51;;;;;;;;;;;18.50;59.20;;;;;;20916003;28;20289;-63
2024/04/07 08:57:53;;;;;;;;;;;18.70;58.30;;;;;;20916246;28;19997;-63
2024/04/07 09:07:54;;;;;;;;;;;19.20;57.40;;;;;;20914836;28;19948;-62
2024/04/07 09:17:56;;;;;;;;;;;19.50;57.40;;;;;;20914246;28;19920;-62
2024/04/07 09:28:00;;;;;;;;;;;19.70;55.80;;;;;;20912818;28;19912;-62
2024/04/07 09:38:01;;;;;;;;;;;19.80;54.80;;;;;;20913233;28;19960;-63
2024/04/07 09:48:02;;;;;;;;;;;19.90;54.70;;;;;;20912211;28;19928;-64
2024/04/07 09:58:03;;;;;;;;;;;19.70;55.40;;;;;;20912428;28;20030;-63
2024/04/07 10:08:05;;;;;;;;;;;19.60;54.30;;;;;;20912157;28;19915;-64
2024/04/07 10:18:27;;;;;;;;;;;19.60;52.10;;;;;;20910758;28;19921;-62
2024/04/07 10:28:44;;;;;;;;;;;19.70;50.90;;;;;;20911745;28;19916;-62
2024/04/07 10:38:47;;;;;;;;;;;19.90;51.40;;;;;;20925532;28;19917;-62
2024/04/07 10:48:49;;;;;;;;;;;20.00;51.30;;;;;;20925666;28;20361;-62
2024/04/07 10:58:50;;;;;;;;;;;20.20;50.60;;;;;;20925388;28;19921;-62
2024/04/07 11:08:51;;;;;;;;;;;20.60;48.70;;;;;;20923767;28;20268;-62
2024/04/07 11:18:55;;;;;;;;;;;20.70;47.50;;;;;;20922054;28;19967;-62
2024/04/07 11:28:56;;;;;;;;;;;20.70;47.70;;;;;;20922522;28;19912;-62
2024/04/07 11:38:57;;;;;;;;;;;20.70;47.50;;;;;;20921472;28;19992;-62
2024/04/07 11:48:58;;;;;;;;;;;20.40;48.20;;;;;;20919334;28;19967;-62
2024/04/07 11:58:59;;;;;;;;;;;20.60;48.60;;;;;;20919158;28;19921;-62
2024/04/07 12:09:00;;;;;;;;;;;20.70;48.10;;;;;;20918427;28;19936;-62
2024/04/07 12:19:01;;;;;;;;;;;21.10;47.90;;;;;;20918572;28;20325;-63
2024/04/07 12:29:02;;;;;;;;;;;21.40;46.70;;;;;;20918176;28;20004;-62
2024/04/07 12:39:08;;;;;;;;;;;21.60;46.00;;;;;;20916371;28;20000;-63
2024/04/07 12:49:10;;;;;;;;;;;21.80;45.50;;;;;;20915857;28;19968;-63
2024/04/07 12:59:11;;;;;;;;;;;22.00;46.20;;;;;;20914191;28;20011;-62
2024/04/07 13:09:11;;;;;;;;;;;22.10;46.10;;;;;;20915930;28;20420;-62
2024/04/07 13:19:12;;;;;;;;;;;22.10;45.40;;;;;;20913907;28;19921;-63
2024/04/07 13:29:14;;;;;;;;;;;22.10;45.00;;;;;;20913536;28;19913;-63
2024/04/07 13:39:15;;;;;;;;;;;22.20;46.50;;;;;;20913942;28;20328;-63
2024/04/07 13:49:15;;;;;;;;;;;22.10;47.30;;;;;;20912613;28;19921;-62
2024/04/07 13:59:16;;;;;;;;;;;22.30;46.00;;;;;;20911976;28;19920;-63
2024/04/07 14:09:17;;;;;;;;;;;22.40;46.50;;;;;;20926440;28;19992;-62
2024/04/07 14:19:19;;;;;;;;;;;22.40;46.60;;;;;;20928992;28;19921;-63
2024/04/07 14:29:20;;;;;;;;;;;22.30;47.00;;;;;;20927005;28;19913;-63
2024/04/07 14:39:21;;;;;;;;;;;22.40;47.30;;;;;;20925996;28;19940;-64
2024/04/07 14:49:22;;;;;;;;;;;22.40;46.40;;;;;;20924997;28;19920;-62
2024/04/07 14:59:23;;;;;;;;;;;22.40;46.50;;;;;;20924462;28;19921;-63
2024/04/07 15:09:25;;;;;;;;;;;22.30;45.80;;;;;;20925224;28;20361;-63
2024/04/07 15:19:26;;;;;;;;;;;22.40;46.40;;;;;;20922398;28;19921;-63
2024/04/07 15:29:27;;;;;;;;;;;22.40;46.60;;;;;;20923144;28;19942;-63
2024/04/07 15:39:28;;;;;;;;;;;22.40;46.80;;;;;;20921143;28;20008;-62
2024/04/07 15:49:29;;;;;;;;;;;22.30;46.70;;;;;;20921068;28;19931;-62
2024/04/07 15:59:29;;;;;;;;;;;22.30;46.90;;;;;;20919771;28;20405;-62
2024/04/07 16:09:30;;;;;;;;;;;22.30;47.50;;;;;;20919994;28;19908;-62
2024/04/07 16:19:32;;;;;;;;;;;22.20;47.80;;;;;;20919614;28;19943;-62
2024/04/07 16:29:34;;;;;;;;;;;22.20;48.20;;;;;;20917547;28;20226;-62
2024/04/07 16:39:35;;;;;;;;;;;22.20;48.60;;;;;;20918149;28;19917;-64
2024/04/07 16:49:36;;;;;;;;;;;22.20;49.10;;;;;;20917719;28;19920;-63
2024/04/07 16:59:38;;;;;;;;;;;22.20;49.50;;;;;;20916644;28;19975;-62
2024/04/07 17:09:40;;;;;;;;;;;22.10;49.90;;;;;;20914670;28;19916;-62
2024/04/07 17:19:41;;;;;;;;;;;22.00;50.50;;;;;;20913788;28;19920;-63
2024/04/07 17:29:42;;;;;;;;;;;21.90;51.00;;;;;;20914605;28;19920;-63
2024/04/07 17:39:43;;;;;;;;;;;21.80;50.90;;;;;;20913787;28;20254;-63
2024/04/07 17:49:45;;;;;;;;;;;21.70;51.40;;;;;;20912947;28;19927;-63
2024/04/07 17:59:47;;;;;;;;;;;21.70;51.60;;;;;;20913286;28;19921;-63
2024/04/07 18:09:48;;;;;;;;;;;21.30;52.00;;;;;;20912989;28;20285;-63
2024/04/07 18:19:49;;;;;;;;;;;21.20;52.30;;;;;;20912754;28;19960;-62
2024/04/07 18:29:50;;;;;;;;;;;21.10;52.50;;;;;;20910556;28;19913;-63
2024/04/07 18:39:51;;;;;;;;;;;20.90;53.00;;;;;;20911529;28;20358;-62
2024/04/07 18:49:53;;;;;;;;;;;20.80;53.20;;;;;;20912730;28;19921;-63
2024/04/07 18:59:55;;;;;;;;;;;20.70;51.60;;;;;;20924651;28;20010;-62
2024/04/07 19:09:56;;;;;;;;;;;20.50;51.60;;;;;;20924009;28;19909;-62
2024/04/07 19:19:57;;;;;;;;;;;20.40;51.40;;;;;;20922161;28;19920;-63
2024/04/07 19:29:58;;;;;;;;;;;20.30;51.10;;;;;;20923756;28;20335;-65
2024/04/07 19:39:59;;;;;;;;;;;20.10;51.20;;;;;;20921762;28;19917;-63
2024/04/07 19:50:02;;;;;;;;;;;20.10;51.80;;;;;;20923206;28;19920;-63
2024/04/07 20:00:07;;;;;;;;;;;20.00;51.80;;;;;;20920062;28;20003;-64
2024/04/07 20:10:08;;;;;;;;;;;19.90;51.90;;;;;;20919278;28;19909;-62
2024/04/07 20:20:10;;;;;;;;;;;19.80;52.20;;;;;;20918526;28;19928;-63
2024/04/07 20:30:11;;;;;;;;;;;19.70;52.60;;;;;;20917879;28;19913;-63
2024/04/07 20:40:12;;;;;;;;;;;19.60;53.80;;;;;;20917048;28;19931;-63
2024/04/07 20:50:13;;;;;;;;;;;19.20;55.30;;;;;;20917384;28;20281;-63
2024/04/07 21:00:14;;;;;;;;;;;19.20;55.60;;;;;;20915289;28;19932;-63
2024/04/07 21:10:17;;;;;;;;;;;19.00;55.80;;;;;;20915210;28;19909;-62
2024/04/07 21:20:20;;;;;;;;;;;18.80;56.60;;;;;;20914705;28;19921;-62
2024/04/07 21:30:23;;;;;;;;;;;18.70;57.00;;;;;;20913146;28;19914;-63
2024/04/07 21:40:24;;;;;;;;;;;18.60;56.90;;;;;;20912735;28;19955;-62
2024/04/07 21:50:26;;;;;;;;;;;18.60;57.20;;;;;;20912249;28;19924;-63
2024/04/07 22:00:27;;;;;;;;;;;18.50;57.30;;;;;;20911973;28;19921;-62
2024/04/07 22:10:28;;;;;;;;;;;18.50;57.60;;;;;;20911744;28;19913;-63
2024/04/07 22:20:30;;;;;;;;;;;18.30;58.90;;;;;;20911063;28;19921;-63
2024/04/07 22:30:31;;;;;;;;;;;18.20;59.70;;;;;;20924985;28;19920;-63
2024/04/07 22:40:33;;;;;;;;;;;18.20;59.80;;;;;;20926808;28;20362;-62
2024/04/07 22:50:35;;;;;;;;;;;18.20;59.50;;;;;;20927654;28;20392;-62
2024/04/07 23:00:40;;;;;;;;;;;18.20;59.10;;;;;;20925365;28;19920;-64
2024/04/07 23:10:41;;;;;;;;;;;18.10;59.20;;;;;;20926083;28;19909;-62
2024/04/07 23:20:43;;;;;;;;;;;18.10;59.10;;;;;;20923835;28;20015;-63
2024/04/07 23:30:44;;;;;;;;;;;18.10;59.10;;;;;;20924595;28;19920;-63
2024/04/07 23:40:45;;;;;;;;;;;18.00;59.00;;;;;;20923100;28;19921;-62
2024/04/07 23:50:46;;;;;;;;;;;18.10;58.40;;;;;;20922809;28;19949;-62
